Time;durP1;ratioP1;P1;durP2;ratioP2;P2;SDS_P1;SDS_P2;PMS_P1;PMS_P2;Temp;Humidity;BMP_temperature;BMP_pressure;BME280_temperature;BME280_humidity;BME280_pressure;Samples;Min_cycle;Max_cycle;Signal;HPM_P1;HPM_P2
2021/12/17 00:04:56;;;;;;;65.90;20.63;;;8.60;99.90;;;;;;4982361;28;20042;-59
2021/12/17 00:07:25;;;;;;;69.43;21.55;;;8.60;99.90;;;;;;4992390;28;20486;-59
2021/12/17 00:09:54;;;;;;;71.03;19.83;;;8.60;99.90;;;;;;4992944;28;20048;-57
2021/12/17 00:12:22;;;;;;;79.75;21.83;;;8.60;99.90;;;;;;4993193;28;20062;-57
2021/12/17 00:14:49;;;;;;;59.28;20.75;;;8.60;99.90;;;;;;4994632;28;20088;-57
2021/12/17 00:17:23;;;;;;;77.57;25.08;;;8.60;99.90;;;;;;4998503;28;20033;-57
2021/12/17 00:52:20;;;;;;;56.75;22.25;;;8.50;99.90;;;;;;4990648;28;20053;-59
2021/12/17 00:54:45;;;;;;;53.83;24.55;;;8.50;99.90;;;;;;4996622;28;20042;-57
2021/12/17 00:57:26;;;;;;;71.85;24.52;;;8.50;99.90;;;;;;4993366;28;20221;-56
2021/12/17 00:59:53;;;;;;;58.45;22.58;;;8.60;99.90;;;;;;4995263;28;20084;-58
2021/12/17 01:02:29;;;;;;;67.80;24.63;;;8.60;99.90;;;;;;4974216;28;20047;-59
2021/12/17 01:04:58;;;;;;;55.72;23.02;;;8.50;99.90;;;;;;4990459;28;20539;-55
2021/12/17 01:07:27;;;;;;;67.13;25.42;;;8.60;99.90;;;;;;5008398;23;20089;-59
2021/12/17 01:09:53;;;;;;;59.40;24.27;;;8.50;99.90;;;;;;5040759;28;20124;-58
2021/12/17 01:12:22;;;;;;;40.00;18.38;;;8.50;99.90;;;;;;5040593;28;20041;-59
2021/12/17 01:14:50;;;;;;;68.05;23.98;;;8.60;99.90;;;;;;5037822;28;20096;-58
2021/12/17 01:17:19;;;;;;;75.95;25.80;;;8.50;99.90;;;;;;5014140;28;20128;-59
2021/12/17 01:20:16;;;;;;;54.10;21.85;;;8.60;99.90;;;;;;5039095;28;20059;-58
2021/12/17 01:25:38;;;;;;;56.20;23.88;;;8.50;99.90;;;;;;5033883;28;20037;-59
2021/12/17 01:36:21;;;;;;;63.28;23.25;;;8.40;99.90;;;;;;5033865;28;20037;-58
2021/12/17 01:44:04;;;;;;;57.47;22.60;;;8.40;99.90;;;;;;5034529;28;20048;-60
2021/12/17 01:46:33;;;;;;;43.10;18.10;;;8.40;99.90;;;;;;5018702;28;20088;-59
2021/12/17 01:55:48;;;;;;;47.47;21.63;;;8.50;99.90;;;;;;5043911;28;20041;-60
2021/12/17 02:00:19;;;;;;;55.95;23.48;;;8.50;99.90;;;;;;5035344;28;20466;-58
2021/12/17 02:02:52;;;;;;;44.33;20.23;;;8.50;99.90;;;;;;5033388;28;20573;-59
2021/12/17 02:05:18;;;;;;;49.63;21.70;;;8.60;99.90;;;;;;5023335;28;20047;-59
2021/12/17 02:07:46;;;;;;;45.40;21.65;;;8.60;99.90;;;;;;5039909;28;20279;-58
2021/12/17 02:31:54;;;;;;;46.63;21.15;;;8.60;99.90;;;;;;5011207;28;20052;-59
2021/12/17 02:34:45;;;;;;;71.43;25.75;;;8.60;99.90;;;;;;5036104;28;20045;-60
2021/12/17 02:37:16;;;;;;;64.75;25.30;;;8.60;99.90;;;;;;5030903;28;20149;-59
2021/12/17 02:47:37;;;;;;;52.00;20.67;;;8.60;99.90;;;;;;5042001;28;19925;-59
2021/12/17 02:50:04;;;;;;;61.38;23.75;;;8.60;99.90;;;;;;5019770;28;20292;-59
2021/12/17 02:52:31;;;;;;;63.22;21.55;;;8.60;99.90;;;;;;5019661;28;20052;-60
2021/12/17 02:54:58;;;;;;;44.50;20.90;;;8.60;99.90;;;;;;5020867;28;20040;-60
2021/12/17 02:57:26;;;;;;;43.83;21.25;;;8.60;99.90;;;;;;5037333;28;20044;-59
2021/12/17 02:59:53;;;;;;;41.22;20.98;;;8.60;99.90;;;;;;5022819;28;20095;-59
2021/12/17 03:02:23;;;;;;;134.65;31.77;;;8.60;99.90;;;;;;5039999;28;20036;-59
2021/12/17 03:04:49;;;;;;;31.40;17.38;;;8.70;99.90;;;;;;5047639;28;20044;-59
2021/12/17 03:07:15;;;;;;;56.95;23.85;;;8.60;99.90;;;;;;4989122;28;20044;-58
2021/12/17 03:12:19;;;;;;;92.55;23.38;;;8.70;99.90;;;;;;5040821;28;20048;-59
2021/12/17 03:14:56;;;;;;;130.75;32.60;;;8.60;99.90;;;;;;5036080;28;20792;-58
2021/12/17 03:17:46;;;;;;;59.58;22.52;;;8.60;99.90;;;;;;5040665;28;20047;-58
2021/12/17 03:25:37;;;;;;;116.78;27.98;;;8.60;99.90;;;;;;5033070;28;20053;-59
2021/12/17 03:28:03;;;;;;;93.43;25.85;;;8.60;99.90;;;;;;5040521;28;20045;-59
2021/12/17 03:30:29;;;;;;;131.57;32.05;;;8.60;99.90;;;;;;5042811;28;20044;-57
2021/12/17 03:32:54;;;;;;;73.85;20.55;;;8.60;99.90;;;;;;5022875;28;20091;-59
2021/12/17 03:35:20;;;;;;;44.58;18.58;;;8.60;99.90;;;;;;5045069;28;20045;-60
2021/12/17 03:37:46;;;;;;;96.60;26.95;;;8.50;99.90;;;;;;5038380;28;20036;-59
2021/12/17 03:40:15;;;;;;;95.43;26.30;;;8.60;99.90;;;;;;5016247;28;20069;-59
2021/12/17 03:42:46;;;;;;;57.20;22.75;;;8.60;99.90;;;;;;5017620;28;20047;-59
2021/12/17 03:45:12;;;;;;;71.00;22.52;;;8.60;99.90;;;;;;5008116;28;20569;-59
2021/12/17 03:47:41;;;;;;;71.68;23.17;;;8.60;99.90;;;;;;5039161;28;20072;-59
2021/12/17 03:50:07;;;;;;;58.70;19.35;;;8.60;99.90;;;;;;4999482;28;20052;-58
2021/12/17 03:52:33;;;;;;;67.60;20.55;;;8.60;99.90;;;;;;5018777;28;20051;-58
2021/12/17 03:54:59;;;;;;;84.63;25.02;;;8.60;99.90;;;;;;5039609;28;20472;-59
2021/12/17 03:57:25;;;;;;;57.60;19.83;;;8.60;99.90;;;;;;5042964;28;20034;-59
2021/12/17 03:59:51;;;;;;;38.05;15.30;;;8.60;99.90;;;;;;5024072;28;20041;-58
2021/12/17 04:02:17;;;;;;;58.35;18.08;;;8.60;99.90;;;;;;5025085;28;20037;-58
2021/12/17 04:04:43;;;;;;;51.67;18.73;;;8.60;99.90;;;;;;5021984;28;20047;-59
2021/12/17 04:07:09;;;;;;;55.95;19.55;;;8.60;99.90;;;;;;5040293;28;20061;-59
2021/12/17 04:09:35;;;;;;;49.33;18.52;;;8.60;99.90;;;;;;5037282;28;20084;-58
2021/12/17 04:12:02;;;;;;;53.78;17.88;;;8.60;99.90;;;;;;5030335;28;20033;-58
2021/12/17 04:14:42;;;;;;;44.97;16.00;;;8.60;99.90;;;;;;5034594;28;20037;-60
2021/12/17 04:17:08;;;;;;;49.25;17.90;;;8.60;99.90;;;;;;5004944;28;20049;-58
2021/12/17 04:19:35;;;;;;;75.35;20.80;;;8.60;99.90;;;;;;5033505;28;20567;-60
2021/12/17 04:22:01;;;;;;;67.78;20.80;;;8.60;99.90;;;;;;5035823;28;20624;-59
2021/12/17 04:24:27;;;;;;;96.68;22.88;;;8.70;99.90;;;;;;5019025;28;20037;-59
2021/12/17 04:26:52;;;;;;;129.73;25.40;;;8.60;99.90;;;;;;5016139;28;20040;-58
2021/12/17 04:29:20;;;;;;;85.43;22.33;;;8.60;99.90;;;;;;5030356;28;20040;-58
2021/12/17 04:31:52;;;;;;;52.95;17.83;;;8.60;99.90;;;;;;5027477;28;20534;-59
2021/12/17 04:34:18;;;;;;;36.25;15.18;;;8.60;99.90;;;;;;5037918;28;20085;-58
2021/12/17 04:36:47;;;;;;;49.70;18.08;;;8.60;99.90;;;;;;5036129;28;20596;-59
2021/12/17 04:39:16;;;;;;;57.40;20.08;;;8.50;99.90;;;;;;5030846;28;20037;-58
2021/12/17 04:42:08;;;;;;;59.05;20.88;;;8.60;99.90;;;;;;5020619;28;20400;-58
2021/12/17 04:44:34;;;;;;;62.13;20.40;;;8.60;99.90;;;;;;5015506;28;20676;-60
2021/12/17 04:57:41;;;;;;;70.10;18.05;;;8.50;99.90;;;;;;5033679;28;20040;-59
2021/12/17 05:00:10;;;;;;;62.03;17.35;;;8.50;99.90;;;;;;5015930;28;20041;-59
2021/12/17 05:02:41;;;;;;;63.95;17.30;;;8.50;99.90;;;;;;5026563;28;20140;-59
2021/12/17 05:05:09;;;;;;;46.95;15.00;;;8.50;99.90;;;;;;5019130;28;20052;-60
2021/12/17 05:07:39;;;;;;;65.15;18.33;;;8.50;99.90;;;;;;5031002;28;20056;-59
2021/12/17 05:18:21;;;;;;;43.40;14.57;;;8.50;99.90;;;;;;5030200;28;20053;-58
2021/12/17 05:20:57;;;;;;;53.45;15.60;;;8.50;99.90;;;;;;5019792;28;20713;-59
2021/12/17 05:23:30;;;;;;;38.40;12.70;;;8.50;99.90;;;;;;5016797;28;20077;-58
2021/12/17 05:25:57;;;;;;;52.22;15.52;;;8.50;99.90;;;;;;5031862;28;20048;-58
2021/12/17 05:28:23;;;;;;;68.65;16.80;;;8.50;99.90;;;;;;5011798;28;20069;-57
2021/12/17 05:30:49;;;;;;;42.63;13.77;;;8.40;99.90;;;;;;5019340;28;20662;-59
2021/12/17 05:33:20;;;;;;;45.83;14.85;;;8.50;99.90;;;;;;5038451;28;20044;-60
2021/12/17 05:35:47;;;;;;;66.72;16.80;;;8.50;99.90;;;;;;5034211;28;20033;-59
2021/12/17 05:38:15;;;;;;;38.65;11.65;;;8.50;99.90;;;;;;5032697;28;20426;-58
2021/12/17 05:40:41;;;;;;;45.28;14.02;;;8.50;99.90;;;;;;5018300;28;20967;-58
2021/12/17 05:43:07;;;;;;;49.70;15.25;;;8.50;99.90;;;;;;5029567;28;20043;-59
2021/12/17 05:45:36;;;;;;;45.30;14.45;;;8.50;99.90;;;;;;5032885;28;20382;-60
2021/12/17 05:48:08;;;;;;;40.20;14.10;;;8.50;99.90;;;;;;5017731;28;20073;-57
2021/12/17 05:50:35;;;;;;;50.40;14.88;;;8.50;99.90;;;;;;5005779;28;20042;-59
2021/12/17 05:53:01;;;;;;;43.45;14.50;;;8.50;99.90;;;;;;5015748;28;20044;-58
2021/12/17 05:55:27;;;;;;;46.83;13.32;;;8.50;99.90;;;;;;5029741;28;20042;-58
2021/12/17 05:57:53;;;;;;;48.95;12.95;;;8.50;99.90;;;;;;5033760;28;20046;-58
2021/12/17 06:00:20;;;;;;;29.00;11.18;;;8.50;99.90;;;;;;5028594;28;20039;-59
2021/12/17 06:02:47;;;;;;;35.45;12.73;;;8.60;99.90;;;;;;4995315;28;20270;-59
2021/12/17 06:05:13;;;;;;;33.00;11.90;;;8.50;99.90;;;;;;5029477;28;20044;-60
2021/12/17 06:07:39;;;;;;;35.80;13.13;;;8.60;99.90;;;;;;5003079;28;20045;-60
2021/12/17 06:10:06;;;;;;;44.72;13.70;;;8.60;99.90;;;;;;5029169;28;20152;-58
2021/12/17 06:12:32;;;;;;;46.20;12.48;;;8.60;99.90;;;;;;5010073;28;20053;-60
2021/12/17 06:14:57;;;;;;;34.15;11.52;;;8.50;99.90;;;;;;5033712;28;20065;-60
2021/12/17 06:17:23;;;;;;;36.20;12.65;;;8.50;99.90;;;;;;5028104;28;20119;-60
2021/12/17 06:19:49;;;;;;;26.45;10.07;;;8.60;99.90;;;;;;5038986;28;20464;-59
2021/12/17 06:22:15;;;;;;;48.17;14.25;;;8.60;99.90;;;;;;5036259;28;20033;-58
2021/12/17 06:24:44;;;;;;;49.75;15.27;;;8.60;99.90;;;;;;5023855;28;20050;-60
2021/12/17 06:27:16;;;;;;;62.20;16.23;;;8.50;99.90;;;;;;5034128;28;20610;-59
2021/12/17 06:29:41;;;;;;;62.55;17.17;;;8.50;99.90;;;;;;5009449;28;20041;-59
2021/12/17 06:32:08;;;;;;;40.22;14.90;;;8.50;99.90;;;;;;5028348;28;20076;-59
2021/12/17 06:34:34;;;;;;;58.97;17.52;;;8.50;99.90;;;;;;5038435;28;20036;-60
2021/12/17 06:37:01;;;;;;;35.33;15.00;;;8.50;99.90;;;;;;5039533;28;20544;-60
2021/12/17 06:39:27;;;;;;;51.45;17.75;;;8.50;99.90;;;;;;5029520;28;20522;-61
2021/12/17 06:41:53;;;;;;;64.43;19.65;;;8.50;99.90;;;;;;5018454;28;20048;-60
2021/12/17 06:44:23;;;;;;;62.53;20.13;;;8.50;99.90;;;;;;5032276;28;21280;-59
2021/12/17 06:54:47;;;;;;;46.08;16.80;;;8.50;99.90;;;;;;5032721;28;20079;-60
2021/12/17 07:10:57;;;;;;;69.28;19.08;;;8.50;99.90;;;;;;5042526;22;20069;-56
2021/12/17 07:21:41;;;;;;;59.85;18.17;;;8.40;99.90;;;;;;5000980;28;20045;-56
2021/12/17 07:39:37;;;;;;;39.42;14.27;;;8.30;99.90;;;;;;5000490;28;20069;-58
2021/12/17 07:42:03;;;;;;;48.80;16.45;;;8.30;99.90;;;;;;4992625;28;20132;-60
2021/12/17 07:44:29;;;;;;;39.95;14.10;;;8.40;99.90;;;;;;4996594;28;22272;-59
2021/12/17 07:46:55;;;;;;;42.08;15.20;;;8.40;99.90;;;;;;4991083;28;20045;-55
2021/12/17 07:49:20;;;;;;;31.25;11.82;;;8.40;99.90;;;;;;5015149;28;20105;-59
2021/12/17 07:51:46;;;;;;;46.17;15.63;;;8.40;99.90;;;;;;4981023;28;20059;-58
2021/12/17 07:54:12;;;;;;;36.85;13.88;;;8.40;99.90;;;;;;4996479;28;20476;-57
2021/12/17 07:56:38;;;;;;;29.00;11.57;;;8.40;99.90;;;;;;4979753;28;20038;-57
2021/12/17 07:59:06;;;;;;;35.53;13.25;;;8.40;99.90;;;;;;4985458;28;20049;-58
2021/12/17 08:01:32;;;;;;;41.50;14.50;;;8.40;99.90;;;;;;4999492;28;20057;-54
2021/12/17 08:03:57;;;;;;;36.85;13.07;;;8.40;99.90;;;;;;4995590;28;20037;-57
2021/12/17 08:06:23;;;;;;;49.30;16.38;;;8.40;99.90;;;;;;4997967;28;20144;-58
2021/12/17 08:08:49;;;;;;;52.08;19.00;;;8.50;99.90;;;;;;4991151;28;20251;-60
2021/12/17 08:11:15;;;;;;;49.88;17.50;;;8.50;99.90;;;;;;4999799;28;20504;-60
2021/12/17 08:13:43;;;;;;;40.60;15.32;;;8.50;99.90;;;;;;4981550;28;20195;-56
2021/12/17 08:24:45;;;;;;;53.33;18.30;;;8.50;99.90;;;;;;4984059;28;20148;-57
2021/12/17 08:27:23;;;;;;;49.00;19.13;;;8.50;99.90;;;;;;5001888;28;20136;-59
2021/12/17 08:32:33;;;;;;;56.05;20.25;;;8.50;99.90;;;;;;4998377;28;20078;-57
2021/12/17 08:34:58;;;;;;;39.05;15.27;;;8.50;99.90;;;;;;4993520;28;20493;-57
2021/12/17 08:37:24;;;;;;;41.17;17.08;;;8.50;99.90;;;;;;4995924;28;20036;-58
2021/12/17 08:39:50;;;;;;;36.80;14.30;;;8.60;99.90;;;;;;4988644;28;20047;-57
2021/12/17 08:42:15;;;;;;;37.63;15.27;;;8.60;99.90;;;;;;4985802;28;20041;-60
2021/12/17 08:44:41;;;;;;;36.75;15.63;;;8.60;99.90;;;;;;4997667;28;20099;-57
2021/12/17 08:47:08;;;;;;;39.05;16.45;;;8.70;99.90;;;;;;4998189;28;20053;-59
2021/12/17 08:49:34;;;;;;;39.42;16.85;;;8.70;99.90;;;;;;4996556;28;20128;-57
2021/12/17 08:52:00;;;;;;;43.40;16.55;;;8.70;99.90;;;;;;5000434;28;20152;-55
2021/12/17 08:54:26;;;;;;;36.20;14.75;;;8.70;99.90;;;;;;4994406;28;20485;-55
2021/12/17 08:56:52;;;;;;;32.13;14.02;;;8.80;99.90;;;;;;4971665;28;20041;-60
2021/12/17 08:59:18;;;;;;;38.45;16.90;;;8.70;99.90;;;;;;4983035;28;20436;-58
2021/12/17 09:01:45;;;;;;;34.33;14.50;;;8.80;99.90;;;;;;4984494;28;20045;-53
2021/12/17 09:04:11;;;;;;;41.17;16.55;;;8.80;99.90;;;;;;4999289;28;20548;-53
2021/12/17 09:06:37;;;;;;;30.25;13.15;;;8.80;99.90;;;;;;4992392;28;21304;-53
2021/12/17 09:09:04;;;;;;;28.52;14.27;;;8.80;99.90;;;;;;4996191;28;20046;-58
2021/12/17 09:11:30;;;;;;;37.05;15.60;;;8.90;99.90;;;;;;4998190;28;20445;-58
2021/12/17 09:13:58;;;;;;;33.40;13.77;;;8.80;99.90;;;;;;5007009;28;23344;-61
2021/12/17 09:16:25;;;;;;;37.28;15.35;;;8.80;99.90;;;;;;4995756;28;20048;-56
2021/12/17 09:18:53;;;;;;;28.17;12.65;;;8.90;99.90;;;;;;5000122;28;20131;-58
2021/12/17 09:21:20;;;;;;;33.47;14.48;;;8.90;99.90;;;;;;4995707;28;20049;-59
2021/12/17 09:23:46;;;;;;;36.15;15.65;;;8.90;99.90;;;;;;4999369;28;20063;-54
2021/12/17 09:26:16;;;;;;;34.22;14.75;;;8.90;99.90;;;;;;4983998;28;20492;-61
2021/12/17 09:28:42;;;;;;;24.83;12.77;;;8.90;99.90;;;;;;5017495;28;20045;-56
2021/12/17 09:31:12;;;;;;;36.08;15.35;;;8.90;99.90;;;;;;5000834;28;20038;-54
2021/12/17 09:33:43;;;;;;;30.27;13.63;;;9.00;99.90;;;;;;4986374;28;20049;-55
2021/12/17 09:36:09;;;;;;;28.40;13.02;;;9.00;99.90;;;;;;4999340;28;20385;-56
2021/12/17 09:38:36;;;;;;;26.77;12.07;;;9.00;99.90;;;;;;5004234;28;20041;-59
2021/12/17 09:41:05;;;;;;;28.90;13.40;;;9.00;99.90;;;;;;4976212;28;20072;-56
2021/12/17 09:43:36;;;;;;;26.38;13.18;;;9.00;99.90;;;;;;4994123;28;20241;-57
2021/12/17 09:46:06;;;;;;;31.10;14.35;;;9.10;99.90;;;;;;4989864;28;20034;-56
2021/12/17 09:48:34;;;;;;;30.95;14.25;;;9.10;99.90;;;;;;4985350;28;20124;-55
2021/12/17 09:51:02;;;;;;;34.35;14.25;;;9.10;99.90;;;;;;4984214;28;20049;-63
2021/12/17 09:53:29;;;;;;;32.28;15.18;;;9.10;99.90;;;;;;4982066;28;20050;-58
2021/12/17 09:55:54;;;;;;;25.50;13.95;;;9.10;99.90;;;;;;4981226;28;20131;-55
2021/12/17 09:58:20;;;;;;;33.85;15.57;;;9.10;99.90;;;;;;5012691;28;20357;-58
2021/12/17 10:00:46;;;;;;;35.30;15.32;;;9.10;99.90;;;;;;4992001;28;20806;-58
2021/12/17 10:03:12;;;;;;;26.77;11.88;;;9.20;99.90;;;;;;4996764;28;20045;-56
2021/12/17 10:05:40;;;;;;;35.65;14.48;;;9.20;99.90;;;;;;4978232;28;20519;-59
2021/12/17 10:08:12;;;;;;;29.73;12.73;;;9.20;99.90;;;;;;4997306;28;20069;-58
2021/12/17 10:10:43;;;;;;;26.52;13.48;;;9.20;99.90;;;;;;4990216;28;20131;-57
2021/12/17 10:13:13;;;;;;;26.33;13.05;;;9.20;99.90;;;;;;4995422;28;20064;-57
2021/12/17 10:15:43;;;;;;;22.23;10.13;;;9.20;99.90;;;;;;4982249;28;20073;-59
2021/12/17 10:18:09;;;;;;;22.17;10.63;;;9.30;99.90;;;;;;4999013;28;20045;-61
2021/12/17 10:20:57;;;;;;;45.88;13.73;;;9.30;99.90;;;;;;4993066;28;20081;-60
2021/12/17 10:23:25;;;;;;;38.28;12.95;;;9.30;99.90;;;;;;5016889;28;20069;-56
2021/12/17 10:25:51;;;;;;;19.20;9.27;;;9.30;99.90;;;;;;4999508;28;20504;-60
2021/12/17 10:28:17;;;;;;;19.55;9.60;;;9.30;99.90;;;;;;4990540;28;20047;-59
2021/12/17 10:30:46;;;;;;;23.95;11.10;;;9.40;99.90;;;;;;4987095;28;20085;-58
2021/12/17 10:33:18;;;;;;;16.95;9.93;;;9.40;99.90;;;;;;4993096;28;20500;-56
2021/12/17 10:35:46;;;;;;;18.88;10.13;;;9.40;99.90;;;;;;5000919;28;20056;-57
2021/12/17 10:38:16;;;;;;;16.38;8.48;;;9.40;99.90;;;;;;4978251;28;20038;-60
2021/12/17 10:40:46;;;;;;;18.83;9.88;;;9.40;99.90;;;;;;4983299;28;20116;-58
2021/12/17 10:43:26;;;;;;;16.08;9.30;;;9.40;99.90;;;;;;4995115;28;20054;-57
2021/12/17 10:46:09;;;;;;;21.30;10.52;;;9.40;99.90;;;;;;4997472;28;20345;-58
2021/12/17 10:54:20;;;;;;;19.52;9.45;;;9.50;99.90;;;;;;4995770;28;20042;-60
2021/12/17 10:56:49;;;;;;;14.32;9.13;;;9.40;99.90;;;;;;4997225;28;20038;-57
2021/12/17 10:59:18;;;;;;;12.43;8.07;;;9.50;99.90;;;;;;5002019;28;20515;-58
2021/12/17 11:01:53;;;;;;;15.60;7.68;;;9.50;99.90;;;;;;4997637;28;20087;-55
2021/12/17 11:04:27;;;;;;;15.05;8.20;;;9.50;99.90;;;;;;4981153;28;20454;-62
2021/12/17 11:07:04;;;;;;;13.13;7.47;;;9.50;99.90;;;;;;5000285;28;20072;-55
2021/12/17 11:09:39;;;;;;;11.73;7.78;;;9.50;99.90;;;;;;4984812;28;20116;-54
2021/12/17 11:12:07;;;;;;;14.88;8.75;;;9.50;99.90;;;;;;5002013;28;20120;-61
2021/12/17 11:14:34;;;;;;;13.32;8.10;;;9.50;99.90;;;;;;4999432;28;20037;-57
2021/12/17 11:16:59;;;;;;;14.23;8.43;;;9.60;99.90;;;;;;4984198;28;20133;-57
2021/12/17 11:19:25;;;;;;;16.80;9.45;;;9.50;99.90;;;;;;4993952;28;20064;-54
2021/12/17 11:21:51;;;;;;;15.20;8.98;;;9.60;99.90;;;;;;4997763;28;20041;-56
2021/12/17 11:24:17;;;;;;;15.95;8.82;;;9.60;99.90;;;;;;5012262;28;20045;-54
2021/12/17 11:26:44;;;;;;;11.48;7.82;;;9.60;99.90;;;;;;4985046;28;20524;-59
2021/12/17 11:29:10;;;;;;;11.00;7.65;;;9.60;99.90;;;;;;4964457;28;20041;-56
2021/12/17 11:31:37;;;;;;;13.45;8.90;;;9.60;99.90;;;;;;4997958;28;22941;-55
2021/12/17 11:34:03;;;;;;;9.80;7.25;;;9.60;99.90;;;;;;5004315;28;20060;-57
2021/12/17 11:36:29;;;;;;;11.10;8.43;;;9.60;99.90;;;;;;4983251;28;20052;-59
2021/12/17 11:39:16;;;;;;;12.65;8.30;;;9.60;99.90;;;;;;4979250;28;20041;-58
2021/12/17 11:42:13;;;;;;;10.40;7.95;;;9.60;99.90;;;;;;4975940;28;20041;-56
2021/12/17 11:44:42;;;;;;;12.05;9.55;;;9.60;99.90;;;;;;4967726;28;20566;-59
2021/12/17 11:47:11;;;;;;;13.00;9.02;;;9.60;99.90;;;;;;4964851;28;20046;-61
2021/12/17 11:49:44;;;;;;;14.88;9.55;;;9.60;99.90;;;;;;4996488;28;20053;-56
2021/12/17 11:52:10;;;;;;;12.60;9.50;;;9.60;99.90;;;;;;4997034;28;20046;-57
2021/12/17 11:54:36;;;;;;;13.00;9.85;;;9.60;99.90;;;;;;5027308;28;20042;-57
2021/12/17 11:57:10;;;;;;;12.50;9.63;;;9.70;99.90;;;;;;4993954;28;20563;-60
2021/12/17 11:59:45;;;;;;;11.27;8.65;;;9.70;99.90;;;;;;5009386;28;20052;-58
2021/12/17 12:02:22;;;;;;;13.27;9.15;;;9.70;99.90;;;;;;5006216;28;20033;-59
2021/12/17 12:04:54;;;;;;;9.50;7.90;;;9.70;99.90;;;;;;5007980;28;20041;-59
2021/12/17 12:07:26;;;;;;;15.00;10.02;;;9.70;99.90;;;;;;5001944;28;20134;-58
2021/12/17 12:10:19;;;;;;;13.55;9.93;;;9.70;99.90;;;;;;4983285;28;20045;-57
2021/12/17 12:12:45;;;;;;;15.68;10.52;;;9.70;99.90;;;;;;4993398;28;20366;-58
2021/12/17 12:15:17;;;;;;;17.23;10.23;;;9.70;99.90;;;;;;4995093;28;20088;-59
2021/12/17 12:17:58;;;;;;;17.90;10.77;;;9.70;99.90;;;;;;4990013;28;20069;-57
2021/12/17 12:20:43;;;;;;;15.52;9.77;;;9.70;99.90;;;;;;4995317;28;20088;-56
2021/12/17 12:23:27;;;;;;;12.10;9.07;;;9.70;99.90;;;;;;5005798;28;20443;-59
2021/12/17 12:26:07;;;;;;;14.82;8.98;;;9.70;99.90;;;;;;4993993;28;20049;-58
2021/12/17 12:28:45;;;;;;;14.48;10.35;;;9.70;99.90;;;;;;5000956;28;20532;-60
2021/12/17 12:31:20;;;;;;;11.95;9.55;;;9.70;99.90;;;;;;5001383;28;20136;-57
2021/12/17 12:34:07;;;;;;;11.93;9.38;;;9.70;99.90;;;;;;5009982;28;20041;-57
2021/12/17 12:36:44;;;;;;;10.68;8.43;;;9.80;99.90;;;;;;5030794;28;20042;-61
2021/12/17 12:39:28;;;;;;;12.90;9.27;;;9.70;99.90;;;;;;5000420;28;20052;-58
2021/12/17 12:42:11;;;;;;;14.20;9.30;;;9.70;99.90;;;;;;4998799;28;20160;-56
2021/12/17 12:44:40;;;;;;;11.80;8.65;;;9.70;99.90;;;;;;4997154;28;20045;-58
2021/12/17 12:47:07;;;;;;;12.65;8.60;;;9.70;99.90;;;;;;5003671;28;20164;-59
2021/12/17 12:49:56;;;;;;;13.25;7.55;;;9.70;99.90;;;;;;5003141;28;20107;-58
2021/12/17 12:52:31;;;;;;;9.55;6.88;;;9.70;99.90;;;;;;4993999;28;20037;-60
2021/12/17 12:55:36;;;;;;;12.23;7.30;;;9.70;99.90;;;;;;5005970;28;20099;-58
2021/12/17 12:58:09;;;;;;;8.90;6.18;;;9.70;99.90;;;;;;4972545;28;20061;-61
2021/12/17 13:00:38;;;;;;;11.23;8.20;;;9.70;99.90;;;;;;4993963;28;20037;-59
2021/12/17 13:03:10;;;;;;;10.43;7.82;;;9.80;99.90;;;;;;4984008;28;20045;-58
2021/12/17 13:05:36;;;;;;;11.85;7.47;;;9.80;99.90;;;;;;5004670;28;20064;-58
2021/12/17 13:08:11;;;;;;;12.00;8.93;;;9.80;99.90;;;;;;4990294;28;20053;-61
2021/12/17 13:10:39;;;;;;;11.23;8.82;;;9.80;99.90;;;;;;4972615;28;20052;-56
2021/12/17 13:13:22;;;;;;;11.23;8.18;;;9.80;99.90;;;;;;5006439;28;20504;-57
2021/12/17 13:16:04;;;;;;;14.35;10.13;;;9.80;99.90;;;;;;5035671;22;20037;-62
2021/12/17 13:24:13;;;;;;;11.23;7.50;;;9.80;99.90;;;;;;5017726;28;20229;-62
2021/12/17 13:26:50;;;;;;;9.57;7.00;;;9.80;99.90;;;;;;5025840;28;20140;-61
2021/12/17 13:29:25;;;;;;;9.02;6.55;;;9.80;99.90;;;;;;5022754;28;20045;-60
2021/12/17 13:32:02;;;;;;;9.02;6.80;;;9.80;99.90;;;;;;4998463;28;20050;-62
2021/12/17 13:34:32;;;;;;;11.68;7.00;;;9.80;99.90;;;;;;5005965;28;20076;-63
2021/12/17 13:37:13;;;;;;;8.30;6.05;;;9.80;99.90;;;;;;4991738;28;20053;-61
2021/12/17 13:39:44;;;;;;;11.82;6.45;;;9.80;99.90;;;;;;4990076;28;20041;-61
2021/12/17 13:42:17;;;;;;;9.43;6.30;;;9.80;99.90;;;;;;5006264;28;20830;-60
2021/12/17 13:44:53;;;;;;;10.48;8.13;;;9.80;99.90;;;;;;4999942;28;20045;-61
2021/12/17 13:47:37;;;;;;;9.50;6.65;;;9.80;99.90;;;;;;5007890;28;20049;-61
2021/12/17 13:50:18;;;;;;;7.40;5.75;;;9.80;99.90;;;;;;5017026;28;20045;-59
2021/12/17 13:53:10;;;;;;;12.73;7.00;;;9.80;99.90;;;;;;5014281;28;20088;-61
2021/12/17 13:55:46;;;;;;;10.15;5.90;;;9.80;99.90;;;;;;5005099;28;20085;-63
2021/12/17 13:58:23;;;;;;;11.00;7.50;;;9.80;99.90;;;;;;4997410;28;20045;-61
2021/12/17 14:00:52;;;;;;;10.48;6.88;;;9.80;99.90;;;;;;4980192;28;20112;-62
2021/12/17 14:03:21;;;;;;;7.93;5.68;;;9.80;99.90;;;;;;4994204;28;20076;-59
2021/12/17 14:05:56;;;;;;;8.35;6.25;;;9.80;99.90;;;;;;5008218;28;21231;-61
2021/12/17 14:08:22;;;;;;;9.95;7.28;;;9.80;99.90;;;;;;5010851;28;20037;-63
2021/12/17 14:10:53;;;;;;;9.13;6.60;;;9.80;99.90;;;;;;4987877;28;20046;-62
2021/12/17 14:13:24;;;;;;;12.45;7.75;;;9.80;99.90;;;;;;4996121;28;20050;-62
2021/12/17 14:15:52;;;;;;;8.90;7.07;;;9.80;99.90;;;;;;4986165;28;20038;-60
2021/12/17 14:18:24;;;;;;;9.88;6.72;;;9.70;99.90;;;;;;5007944;28;20388;-64
2021/12/17 14:20:52;;;;;;;9.18;7.07;;;9.80;99.90;;;;;;4988714;28;20507;-63
2021/12/17 14:23:21;;;;;;;9.52;6.63;;;9.80;99.90;;;;;;4992711;28;20412;-65
2021/12/17 14:25:54;;;;;;;9.70;6.20;;;9.80;99.90;;;;;;4977992;28;20041;-61
2021/12/17 14:28:35;;;;;;;10.90;5.97;;;9.80;99.90;;;;;;5011077;28;20073;-60
2021/12/17 14:31:14;;;;;;;7.88;6.35;;;9.70;99.90;;;;;;4992707;28;20045;-60
2021/12/17 14:33:46;;;;;;;11.95;6.93;;;9.70;99.90;;;;;;4986450;28;20076;-60
2021/12/17 14:36:17;;;;;;;12.38;6.35;;;9.70;99.90;;;;;;4993044;28;20038;-61
2021/12/17 14:38:50;;;;;;;9.07;6.53;;;9.70;99.90;;;;;;5002639;28;20525;-62
2021/12/17 14:41:31;;;;;;;7.75;5.25;;;9.70;99.90;;;;;;4978478;28;20056;-60
2021/12/17 14:44:02;;;;;;;10.18;6.85;;;9.70;99.90;;;;;;5000257;28;20049;-61
2021/12/17 14:46:56;;;;;;;8.55;6.47;;;9.70;99.90;;;;;;4996952;28;20041;-61
2021/12/17 15:05:18;;;;;;;11.68;7.40;;;9.70;99.90;;;;;;5011658;28;20508;-61
2021/12/17 15:07:44;;;;;;;7.88;6.15;;;9.70;99.90;;;;;;4997924;28;20025;-60
2021/12/17 15:10:11;;;;;;;9.55;6.63;;;9.70;99.90;;;;;;5010323;28;20392;-60
2021/12/17 15:12:38;;;;;;;10.70;7.05;;;9.70;99.90;;;;;;5009484;28;20109;-60
2021/12/17 15:15:08;;;;;;;11.93;7.00;;;9.70;99.90;;;;;;5023115;28;20065;-60
2021/12/17 15:17:35;;;;;;;10.10;7.03;;;9.70;99.90;;;;;;5006579;28;20092;-61
2021/12/17 15:20:01;;;;;;;9.05;7.25;;;9.70;99.90;;;;;;5013982;28;20057;-62
2021/12/17 15:22:27;;;;;;;9.82;7.15;;;9.60;99.90;;;;;;5000067;28;20115;-62
2021/12/17 15:24:53;;;;;;;10.57;6.72;;;9.60;99.90;;;;;;4980799;28;20658;-62
2021/12/17 15:27:20;;;;;;;11.10;7.13;;;9.70;99.90;;;;;;4993560;28;20042;-61
2021/12/17 15:29:46;;;;;;;9.35;6.95;;;9.70;99.90;;;;;;5001980;28;20084;-61
2021/12/17 15:32:12;;;;;;;12.15;7.55;;;9.70;99.90;;;;;;4994985;28;20507;-61
2021/12/17 15:34:38;;;;;;;11.10;7.75;;;9.60;99.90;;;;;;5017409;28;20080;-61
2021/12/17 15:37:04;;;;;;;12.43;8.07;;;9.60;99.90;;;;;;5018820;28;20061;-62
2021/12/17 15:39:30;;;;;;;12.93;7.53;;;9.70;99.90;;;;;;5018032;28;20055;-61
2021/12/17 15:41:56;;;;;;;12.90;8.00;;;9.60;99.90;;;;;;4998474;28;20034;-61
2021/12/17 15:44:21;;;;;;;15.48;8.07;;;9.60;99.90;;;;;;4992586;28;20051;-61
2021/12/17 15:46:50;;;;;;;12.93;8.23;;;9.60;99.90;;;;;;4997423;28;20086;-60
2021/12/17 15:49:16;;;;;;;12.82;7.68;;;9.60;99.90;;;;;;5012679;28;20080;-61
2021/12/17 15:51:42;;;;;;;11.95;7.60;;;9.60;99.90;;;;;;5009588;28;20049;-60
2021/12/17 15:54:07;;;;;;;13.77;8.20;;;9.60;99.90;;;;;;5018003;28;20037;-60
2021/12/17 15:56:34;;;;;;;10.00;8.02;;;9.60;99.90;;;;;;5023812;28;20069;-60
2021/12/17 15:59:02;;;;;;;12.52;8.88;;;9.60;99.90;;;;;;5017327;28;20033;-63
2021/12/17 16:01:27;;;;;;;15.02;8.13;;;9.60;99.90;;;;;;5015715;28;20050;-62
2021/12/17 16:03:53;;;;;;;13.55;9.38;;;9.60;99.90;;;;;;5011355;28;20041;-62
2021/12/17 16:06:20;;;;;;;10.30;7.05;;;9.60;99.90;;;;;;5018186;28;20067;-61
2021/12/17 16:08:50;;;;;;;14.95;9.77;;;9.50;99.90;;;;;;5016672;28;20045;-61
2021/12/17 16:22:05;;;;;;;17.58;9.73;;;9.50;99.90;;;;;;4986881;28;20253;-62
2021/12/17 16:24:31;;;;;;;18.05;9.82;;;9.50;99.90;;;;;;4997784;28;20056;-63
2021/12/17 16:26:57;;;;;;;16.42;10.07;;;9.50;99.90;;;;;;4991437;28;20042;-62